createdAt,value
2023-03-11T00:01:02.602Z,0.90
2023-03-11T00:07:01.564Z,0.70
2023-03-11T00:13:36.914Z,0.70
2023-03-11T00:20:00.479Z,0.70
2023-03-11T00:26:10.108Z,0.50
2023-03-11T00:32:09.124Z,0.40
2023-03-11T00:38:43.894Z,0.40
2023-03-11T00:45:07.673Z,0.30
2023-03-11T00:51:17.275Z,0.30
2023-03-11T00:57:16.116Z,0.30
2023-03-11T01:03:50.888Z,0.00
2023-03-11T01:10:14.772Z,0.00
2023-03-11T01:16:24.775Z,-0.10
2023-03-11T01:22:23.895Z,-0.10
2023-03-11T01:28:58.615Z,-0.10
2023-03-11T01:35:23.339Z,-0.20
2023-03-11T01:41:32.939Z,-0.30
2023-03-11T01:47:38.603Z,-0.30
2023-03-11T01:54:18.346Z,-0.20
2023-03-11T02:00:42.159Z,-0.20
2023-03-11T02:06:54.087Z,-0.30
2023-03-11T02:12:53.465Z,-0.40
2023-03-11T02:19:48.839Z,-0.40
2023-03-11T02:26:18.698Z,-0.40
2023-03-11T02:32:28.774Z,-0.60
2023-03-11T02:38:27.946Z,-0.80
2023-03-11T02:45:12.242Z,-0.80
2023-03-11T02:51:35.793Z,-0.90
2023-03-11T02:57:46.781Z,-0.90
2023-03-11T03:03:45.859Z,-1.00
2023-03-11T03:10:22.243Z,-1.10
2023-03-11T03:16:45.913Z,-1.10
2023-03-11T03:22:55.653Z,-1.10
2023-03-11T03:28:54.496Z,-1.10
2023-03-11T03:35:29.311Z,-1.30
2023-03-11T03:41:52.877Z,-1.20
2023-03-11T03:48:02.487Z,-1.40
2023-03-11T03:54:01.321Z,-1.80
2023-03-11T04:00:37.110Z,-1.80
2023-03-11T04:07:00.652Z,-1.80
2023-03-11T04:13:10.470Z,-1.90
2023-03-11T04:19:09.875Z,-1.90
2023-03-11T04:25:44.607Z,-2.10
2023-03-11T04:32:08.215Z,-2.10
2023-03-11T04:38:17.848Z,-2.10
2023-03-11T04:44:16.731Z,-2.20
2023-03-11T04:50:51.481Z,-2.10
2023-03-11T04:57:15.082Z,-2.10
2023-03-11T05:03:24.729Z,-2.20
2023-03-11T05:09:23.622Z,-2.20
2023-03-11T05:15:58.407Z,-2.20
2023-03-11T05:22:22.284Z,-2.30
2023-03-11T05:28:31.871Z,-2.30
2023-03-11T05:34:30.950Z,-2.50
2023-03-11T05:41:06.380Z,-2.40
2023-03-11T05:47:29.920Z,-2.40
2023-03-11T05:53:42.420Z,-2.30
2023-03-11T05:59:41.584Z,-2.20
2023-03-11T06:06:17.737Z,-2.10
2023-03-11T06:12:41.333Z,-1.90
2023-03-11T06:18:51.242Z,-1.80
2023-03-11T06:24:50.153Z,-1.80
2023-03-11T06:31:27.428Z,-1.80
2023-03-11T06:37:51.042Z,-1.70
2023-03-11T06:44:00.678Z,-1.50
2023-03-11T06:49:59.550Z,-1.50
2023-03-11T06:56:34.265Z,-1.30
2023-03-11T07:02:57.847Z,1.60
2023-03-11T07:09:07.720Z,3.30
2023-03-11T07:15:07.275Z,4.20
2023-03-11T07:21:42.184Z,7.20
2023-03-11T07:28:05.718Z,6.40
2023-03-11T07:34:15.364Z,6.80
2023-03-11T07:40:14.942Z,4.50
2023-03-11T07:46:49.770Z,4.90
2023-03-11T07:53:13.306Z,6.00
2023-03-11T07:59:22.933Z,3.90
2023-03-11T08:05:21.760Z,5.20
2023-03-11T08:11:57.340Z,7.90
2023-03-11T08:18:20.902Z,11.90
2023-03-11T08:24:30.528Z,7.00
2023-03-11T08:30:29.356Z,6.50
2023-03-11T08:37:04.082Z,8.60
2023-03-11T08:43:27.676Z,8.50
2023-03-11T08:49:37.969Z,10.80
2023-03-11T08:55:36.988Z,7.20
2023-03-11T09:02:11.709Z,5.00
2023-03-11T09:08:35.332Z,5.10
2023-03-11T09:14:44.973Z,7.40
2023-03-11T09:20:44.575Z,3.10
2023-03-11T09:27:19.362Z,6.40
2023-03-11T09:33:43.381Z,6.40
2023-03-11T09:39:52.940Z,7.40
2023-03-11T09:46:03.405Z,12.30
2023-03-11T09:52:58.518Z,8.40
2023-03-11T09:59:32.445Z,5.30
2023-03-11T10:05:42.384Z,4.80
2023-03-11T10:11:56.546Z,7.40
2023-03-11T10:19:11.297Z,11.80
2023-03-11T10:25:40.962Z,12.00
2023-03-11T10:31:54.578Z,9.00
2023-03-11T10:38:18.282Z,8.10
2023-03-11T10:44:53.044Z,4.60
2023-03-11T10:51:26.766Z,3.70
2023-03-11T10:57:38.120Z,3.20
2023-03-11T11:06:06.707Z,4.40
2023-03-11T11:08:34.213Z,10.30
2023-03-11T11:11:03.155Z,9.20
2023-03-11T11:13:32.422Z,8.80
2023-03-11T11:16:03.267Z,7.40
2023-03-11T11:18:34.468Z,8.40
2023-03-11T11:21:07.624Z,10.90
2023-03-11T11:23:37.516Z,9.30
2023-03-11T11:26:25.988Z,6.30
2023-03-11T11:29:12.272Z,5.90
2023-03-11T11:31:41.565Z,5.50
2023-03-11T11:34:29.737Z,5.60
2023-03-11T11:37:02.513Z,6.10
2023-03-11T11:39:33.356Z,5.40
2023-03-11T11:42:01.451Z,5.30
2023-03-11T11:44:33.708Z,5.50
2023-03-11T11:47:37.783Z,5.20
2023-03-11T11:50:12.038Z,5.10
2023-03-11T11:52:46.108Z,4.60
2023-03-11T11:55:22.714Z,3.90
2023-03-11T11:57:51.340Z,4.20
2023-03-11T12:00:20.992Z,4.20
2023-03-11T12:03:28.245Z,4.00
2023-03-11T12:06:07.995Z,4.10
2023-03-11T12:08:54.578Z,4.30
2023-03-11T12:11:29.082Z,4.50
2023-03-11T12:14:00.480Z,4.70
2023-03-11T12:17:03.638Z,5.00
2023-03-11T12:19:45.694Z,4.90
2023-03-11T12:22:33.636Z,5.20
2023-03-11T12:25:22.442Z,4.70
2023-03-11T12:28:09.035Z,4.90
2023-03-11T12:30:38.901Z,5.20
2023-03-11T12:33:11.351Z,4.90
2023-03-11T12:35:38.056Z,5.30
2023-03-11T12:38:22.837Z,5.50
2023-03-11T12:41:12.130Z,5.60
2023-03-11T12:43:38.692Z,5.70
2023-03-11T12:46:19.394Z,5.40
2023-03-11T12:49:06.691Z,5.20
2023-03-11T12:51:34.181Z,5.30
2023-03-11T12:54:21.471Z,5.60
2023-03-11T12:56:57.081Z,6.10
2023-03-11T12:59:42.101Z,5.80
2023-03-11T13:02:36.142Z,5.60
2023-03-11T13:05:18.964Z,5.40
2023-03-11T13:08:12.405Z,5.10
2023-03-11T13:10:50.524Z,5.40
2023-03-11T13:13:30.151Z,5.60
2023-03-11T13:15:58.038Z,5.60
2023-03-11T13:18:30.440Z,5.00
2023-03-11T13:21:01.613Z,5.20
2023-03-11T13:23:40.518Z,5.40
2023-03-11T13:26:10.271Z,5.30
2023-03-11T13:29:11.042Z,5.60
2023-03-11T13:32:02.575Z,5.60
2023-03-11T13:34:50.746Z,5.90
2023-03-11T13:38:11.332Z,5.50
2023-03-11T13:40:39.297Z,5.60
2023-03-11T13:43:19.262Z,6.00
2023-03-11T13:45:57.906Z,6.10
2023-03-11T13:48:40.535Z,5.90
2023-03-11T13:51:19.582Z,6.10
2023-03-11T13:54:03.700Z,6.10
2023-03-11T13:56:43.624Z,6.00
2023-03-11T13:59:26.741Z,6.00
2023-03-11T14:01:56.573Z,6.00
2023-03-11T14:04:32.148Z,5.90
2023-03-11T14:06:59.978Z,6.10
2023-03-11T14:09:28.382Z,6.30
2023-03-11T14:12:03.115Z,5.80
2023-03-11T14:14:38.214Z,5.70
2023-03-11T14:17:09.025Z,5.60
2023-03-11T14:19:35.641Z,5.80
2023-03-11T14:22:02.256Z,5.70
2023-03-11T14:24:29.967Z,5.30
2023-03-11T14:26:59.675Z,5.70
2023-03-11T14:29:40.429Z,5.60
2023-03-11T14:32:17.848Z,5.50
2023-03-11T14:34:45.915Z,5.50
2023-03-11T14:37:36.904Z,5.60
2023-03-11T14:40:23.118Z,5.20
2023-03-11T14:42:53.758Z,5.00
2023-03-11T14:45:23.339Z,5.00
2023-03-11T14:47:49.942Z,5.60
2023-03-11T14:50:25.417Z,6.00
2023-03-11T14:52:55.414Z,5.90
2023-03-11T14:55:50.978Z,6.00
2023-03-11T14:58:31.933Z,5.80
2023-03-11T15:01:11.266Z,5.80
2023-03-11T15:03:49.403Z,5.60
2023-03-11T15:06:23.154Z,5.60
2023-03-11T15:09:06.114Z,5.80
2023-03-11T15:12:00.729Z,5.70
2023-03-11T15:14:32.706Z,5.60
2023-03-11T15:17:37.155Z,5.60
2023-03-11T15:20:24.375Z,5.60
2023-03-11T15:23:01.235Z,5.40
2023-03-11T15:25:31.565Z,5.50
2023-03-11T15:27:58.321Z,5.60
2023-03-11T15:30:31.109Z,5.40
2023-03-11T15:32:58.951Z,5.50
2023-03-11T15:35:30.840Z,5.70
2023-03-11T15:38:21.629Z,5.80
2023-03-11T15:41:11.231Z,5.40
2023-03-11T15:43:47.322Z,5.40
2023-03-11T15:46:14.302Z,5.30
2023-03-11T15:48:43.154Z,5.20
2023-03-11T15:51:20.506Z,5.30
2023-03-11T15:53:47.211Z,5.20
2023-03-11T15:56:22.563Z,5.30
2023-03-11T15:58:49.366Z,5.30
2023-03-11T16:01:16.073Z,5.40
2023-03-11T16:03:42.843Z,5.30
2023-03-11T16:06:09.500Z,5.10
2023-03-11T16:08:37.501Z,5.00
2023-03-11T16:11:04.331Z,4.90
2023-03-11T16:13:31.006Z,4.80
2023-03-11T16:15:57.721Z,4.70
2023-03-11T16:18:24.421Z,4.60
2023-03-11T16:20:53.157Z,4.60
2023-03-11T16:23:36.177Z,4.50
2023-03-11T16:26:10.869Z,4.50
2023-03-11T16:28:38.273Z,4.40
2023-03-11T16:31:05.569Z,4.30
2023-03-11T16:33:33.694Z,4.20
2023-03-11T16:36:00.413Z,4.30
2023-03-11T16:38:27.157Z,4.20
2023-03-11T16:40:59.270Z,4.20
2023-03-11T16:43:27.068Z,4.50
2023-03-11T16:45:56.438Z,4.30
2023-03-11T16:48:23.643Z,4.40
2023-03-11T16:50:50.407Z,4.50
2023-03-11T16:53:17.671Z,4.60
2023-03-11T16:55:45.698Z,4.50
2023-03-11T16:58:13.128Z,4.50
2023-03-11T17:00:41.428Z,4.50
2023-03-11T17:03:11.669Z,4.40
2023-03-11T17:05:38.495Z,4.30
2023-03-11T17:08:05.453Z,4.20
2023-03-11T17:10:39.401Z,4.00
2023-03-11T17:13:06.872Z,4.00
2023-03-11T17:15:35.233Z,3.90
2023-03-11T17:18:02.619Z,3.90
2023-03-11T17:20:29.362Z,3.80
2023-03-11T17:22:56.097Z,3.70
2023-03-11T17:25:22.919Z,3.50
2023-03-11T17:27:49.654Z,3.50
2023-03-11T17:30:24.373Z,3.40
2023-03-11T17:33:01.063Z,3.10
2023-03-11T17:35:27.773Z,2.90
2023-03-11T17:37:54.450Z,2.90
2023-03-11T17:40:21.330Z,2.80
2023-03-11T17:42:47.939Z,2.60
2023-03-11T17:45:14.612Z,2.50
2023-03-11T17:47:41.237Z,2.30
2023-03-11T17:50:08.586Z,2.30
2023-03-11T17:52:35.359Z,2.10
2023-03-11T17:55:02.024Z,2.00
2023-03-11T17:57:28.694Z,2.00
2023-03-11T17:59:55.316Z,1.80
2023-03-11T18:02:22.188Z,1.70
2023-03-11T18:04:53.789Z,1.60
2023-03-11T18:07:23.485Z,1.50
2023-03-11T18:09:53.838Z,1.50
2023-03-11T18:12:21.165Z,1.50
2023-03-11T18:14:47.826Z,1.40
2023-03-11T18:17:15.837Z,1.30
2023-03-11T18:19:44.053Z,1.30
2023-03-11T18:22:10.814Z,1.30
2023-03-11T18:24:37.478Z,1.20
2023-03-11T18:27:04.379Z,1.10
2023-03-11T18:29:31.030Z,1.00
2023-03-11T18:31:57.895Z,0.90
2023-03-11T18:34:24.551Z,1.00
2023-03-11T18:36:51.265Z,0.60
2023-03-11T18:39:18.034Z,0.50
2023-03-11T18:41:44.727Z,0.40
2023-03-11T18:44:12.417Z,0.40
2023-03-11T18:46:41.457Z,0.20
2023-03-11T18:49:11.406Z,0.20
2023-03-11T18:51:38.336Z,0.10
2023-03-11T18:54:05.741Z,0.00
2023-03-11T18:56:32.911Z,0.00
2023-03-11T18:59:00.284Z,0.00
2023-03-11T19:01:27.632Z,0.00
2023-03-11T19:03:57.788Z,0.10
2023-03-11T19:06:26.296Z,0.10
2023-03-11T19:08:53.917Z,0.10
2023-03-11T19:11:22.599Z,0.00
2023-03-11T19:13:49.477Z,0.20
2023-03-11T19:16:19.702Z,0.20
2023-03-11T19:18:46.829Z,0.00
2023-03-11T19:21:15.190Z,-0.10
2023-03-11T19:23:41.914Z,-0.30
2023-03-11T19:26:08.979Z,-0.50
2023-03-11T19:28:35.662Z,-0.40
2023-03-11T19:31:02.935Z,-0.60
2023-03-11T19:33:35.341Z,-0.60
2023-03-11T19:36:04.259Z,-0.60
2023-03-11T19:38:31.213Z,-0.40
2023-03-11T19:41:06.692Z,-0.60
2023-03-11T19:43:37.795Z,-0.70
2023-03-11T19:46:05.608Z,-0.80
2023-03-11T19:48:32.819Z,-0.90
2023-03-11T19:51:00.462Z,-0.90
2023-03-11T19:53:27.823Z,-1.00
2023-03-11T19:55:56.631Z,-1.10
2023-03-11T19:58:29.441Z,-0.80
2023-03-11T20:00:58.243Z,-1.50
2023-03-11T20:03:25.695Z,-1.20
2023-03-11T20:05:54.708Z,-1.10
2023-03-11T20:08:22.315Z,-1.20
2023-03-11T20:10:51.543Z,-1.20
2023-03-11T20:13:22.323Z,-1.10
2023-03-11T20:15:49.798Z,-1.00
2023-03-11T20:18:17.808Z,-1.00
2023-03-11T20:20:45.402Z,-1.00
2023-03-11T20:23:12.872Z,-0.90
2023-03-11T20:25:41.065Z,-1.10
2023-03-11T20:28:08.767Z,-1.10
2023-03-11T20:30:38.098Z,-1.20
2023-03-11T20:33:05.188Z,-1.20
2023-03-11T20:35:32.001Z,-1.20
2023-03-11T20:37:59.636Z,-1.30
2023-03-11T20:40:26.460Z,-1.30
2023-03-11T20:42:53.294Z,-1.30
2023-03-11T20:45:21.882Z,-1.40
2023-03-11T20:47:50.544Z,-1.50
2023-03-11T20:50:17.841Z,-1.50
2023-03-11T20:52:44.729Z,-1.50
2023-03-11T20:55:14.043Z,-1.50
2023-03-11T20:57:41.205Z,-1.50
2023-03-11T21:00:11.436Z,-1.50
2023-03-11T21:02:39.824Z,-1.70
2023-03-11T21:05:07.463Z,-1.60
2023-03-11T21:07:34.605Z,-1.70
2023-03-11T21:10:02.547Z,-1.80
2023-03-11T21:12:31.197Z,-1.90
2023-03-11T21:14:58.214Z,-1.90
2023-03-11T21:17:25.044Z,-1.90
2023-03-11T21:19:51.828Z,-1.80
2023-03-11T21:22:18.653Z,-1.70
2023-03-11T21:24:45.381Z,-1.70
2023-03-11T21:27:12.118Z,-1.70
2023-03-11T21:29:38.887Z,-1.70
2023-03-11T21:32:05.975Z,-1.70
2023-03-11T21:34:32.820Z,-1.80
2023-03-11T21:36:59.684Z,-1.80
2023-03-11T21:39:26.392Z,-1.80
2023-03-11T21:41:56.047Z,-1.90
2023-03-11T21:44:22.833Z,-1.90
2023-03-11T21:46:49.784Z,-1.90
2023-03-11T21:49:16.654Z,-1.90
2023-03-11T21:51:43.293Z,-1.90
2023-03-11T21:54:10.951Z,-2.00
2023-03-11T21:56:37.869Z,-2.00
2023-03-11T21:59:04.996Z,-2.00
2023-03-11T22:01:31.839Z,-2.00
2023-03-11T22:03:58.635Z,-2.00
2023-03-11T22:06:25.603Z,-2.10
2023-03-11T22:08:52.669Z,-2.20
2023-03-11T22:11:20.474Z,-2.30
2023-03-11T22:13:49.170Z,-2.30
2023-03-11T22:16:16.103Z,-2.30
2023-03-11T22:18:43.022Z,-2.30
2023-03-11T22:21:10.880Z,-2.30
2023-03-11T22:23:37.939Z,-2.30
2023-03-11T22:26:04.840Z,-2.30
2023-03-11T22:28:31.514Z,-2.30
2023-03-11T22:30:58.216Z,-2.30
2023-03-11T22:33:25.747Z,-2.40
2023-03-11T22:35:57.401Z,-2.40
2023-03-11T22:38:24.145Z,-2.40
2023-03-11T22:40:51.013Z,-2.40
2023-03-11T22:43:17.795Z,-2.40
2023-03-11T22:45:45.555Z,-2.40
2023-03-11T22:48:12.545Z,-2.40
2023-03-11T22:50:47.269Z,-2.50
2023-03-11T22:53:15.510Z,-2.50
2023-03-11T22:55:44.284Z,-2.50
2023-03-11T22:58:11.868Z,-2.50
2023-03-11T23:00:39.110Z,-2.60
2023-03-11T23:03:06.311Z,-2.60
2023-03-11T23:05:40.636Z,-2.60
2023-03-11T23:08:08.915Z,-2.50
2023-03-11T23:10:35.839Z,-2.50
2023-03-11T23:13:02.499Z,-2.40
2023-03-11T23:15:30.357Z,-2.30
2023-03-11T23:17:57.079Z,-2.10
2023-03-11T23:20:23.772Z,-2.00
2023-03-11T23:22:50.478Z,-2.00
2023-03-11T23:25:17.552Z,-2.00
2023-03-11T23:27:45.326Z,-1.90
2023-03-11T23:30:15.205Z,-2.00
2023-03-11T23:32:42.387Z,-2.00
2023-03-11T23:35:09.535Z,-2.00
2023-03-11T23:37:36.209Z,-2.00
2023-03-11T23:40:04.875Z,-2.10
2023-03-11T23:42:34.788Z,-2.10
2023-03-11T23:45:01.890Z,-2.10
2023-03-11T23:47:28.971Z,-2.10
2023-03-11T23:49:55.693Z,-2.20
2023-03-11T23:52:22.793Z,-2.20
2023-03-11T23:54:49.661Z,-2.10
2023-03-11T23:57:16.403Z,-2.10
2023-03-11T23:59:43.117Z,-2.10
